Time;durP1;ratioP1;P1;durP2;ratioP2;P2;SDS_P1;SDS_P2;PMS_P1;PMS_P2;Temp;Humidity;BMP_temperature;BMP_pressure;BME280_temperature;BME280_humidity;BME280_pressure;Samples;Min_cycle;Max_cycle;Signal;HPM_P1;HPM_P2
2023/12/01 00:01:28;;;;;;;;;12.00;9.80;;;;;1.19;86.81;98577.13;5056320;28;8827;-91
2023/12/01 00:03:56;;;;;;;;;9.40;9.20;;;;;1.17;86.82;98574.63;5056446;28;8853;-92
2023/12/01 00:06:24;;;;;;;;;15.00;15.00;;;;;1.18;86.45;98576.31;5056109;28;8830;-91
2023/12/01 00:08:52;;;;;;;;;8.60;7.40;;;;;1.19;86.77;98577.13;5056384;28;9507;-91
2023/12/01 00:11:20;;;;;;;;;11.20;10.40;;;;;1.21;86.40;98583.13;5056383;28;8847;-91
2023/12/01 00:13:47;;;;;;;;;6.20;5.60;;;;;1.21;86.96;98583.97;5056679;28;8850;-92
2023/12/01 00:16:15;;;;;;;;;9.40;7.80;;;;;1.23;86.49;98589.13;5055997;28;9503;-91
2023/12/01 00:18:43;;;;;;;;;10.00;10.00;;;;;1.23;86.33;98584.69;5055985;28;8849;-91
2023/12/01 00:21:11;;;;;;;;;10.40;9.00;;;;;1.23;86.32;98589.94;5056100;28;8862;-91
2023/12/01 00:23:38;;;;;;;;;9.60;9.60;;;;;1.23;86.89;98589.13;5056692;28;8827;-91
2023/12/01 00:26:06;;;;;;;;;4.80;3.40;;;;;1.23;86.44;98589.13;5056448;28;8956;-91
2023/12/01 00:28:35;;;;;;;;;4.00;3.60;;;;;1.26;86.42;98595.00;5056711;28;8845;-92
2023/12/01 00:31:03;;;;;;;;;13.40;13.00;;;;;1.26;86.35;98587.13;5058499;28;8838;-92
2023/12/01 00:33:30;;;;;;;;;9.80;7.00;;;;;1.25;86.50;98582.84;5071366;28;8923;-91
2023/12/01 00:36:00;;;;;;;;;8.20;7.00;;;;;1.25;86.45;98587.22;5066956;28;8946;-91
2023/12/01 00:38:28;;;;;;;;;12.00;10.00;;;;;1.26;86.51;98591.53;5067453;28;8924;-91
2023/12/01 00:40:56;;;;;;;;;20.80;18.00;;;;;1.29;87.13;98594.78;5057552;28;8834;-91
2023/12/01 00:43:23;;;;;;;;;9.80;9.40;;;;;1.29;86.45;98597.41;5057486;28;8888;-91
2023/12/01 00:45:51;;;;;;;;;10.00;9.20;;;;;1.30;86.43;98598.28;5056767;28;8850;-91
2023/12/01 00:48:19;;;;;;;;;14.60;12.60;;;;;1.30;86.64;98606.13;5056470;28;8854;-91
2023/12/01 00:50:47;;;;;;;;;14.60;12.60;;;;;1.32;86.22;98599.00;5055829;28;8881;-91
2023/12/01 00:53:15;;;;;;;;;10.60;6.80;;;;;1.33;86.33;98612.03;5056523;28;8835;-92
2023/12/01 00:55:43;;;;;;;;;14.00;11.40;;;;;1.35;86.46;98610.13;5056360;28;8961;-91
2023/12/01 00:58:11;;;;;;;;;11.80;11.20;;;;;1.36;86.76;98608.38;5056299;28;8838;-91
2023/12/01 01:00:40;;;;;;;;;11.80;11.20;;;;;1.36;86.79;98617.06;5055505;28;8826;-92
2023/12/01 01:03:07;;;;;;;;;7.40;7.00;;;;;1.37;85.87;98621.34;5056220;28;8854;-91
2023/12/01 01:05:36;;;;;;;;;13.40;13.00;;;;;1.38;86.31;98630.06;5056202;28;8884;-92
2023/12/01 01:08:04;;;;;;;;;10.00;9.60;;;;;1.36;86.28;98619.69;5056160;28;8954;-92
2023/12/01 01:10:31;;;;;;;;;14.40;10.40;;;;;1.37;86.57;98628.41;5055344;28;8850;-91
2023/12/01 01:12:59;;;;;;;;;11.60;9.60;;;;;1.36;86.78;98624.91;5055430;28;8857;-92
2023/12/01 01:15:27;;;;;;;;;13.20;10.40;;;;;1.36;86.28;98622.31;5055180;28;8866;-92
2023/12/01 01:17:54;;;;;;;;;18.60;11.60;;;;;1.35;86.62;98625.88;5055131;28;8842;-91
2023/12/01 01:20:22;;;;;;;;;6.60;5.60;;;;;1.33;86.77;98622.50;5054604;28;8859;-91
2023/12/01 01:22:50;;;;;;;;;14.40;14.00;;;;;1.33;86.27;98629.53;5054241;28;8859;-91
2023/12/01 01:25:17;;;;;;;;;6.80;6.60;;;;;1.29;86.55;98636.72;5055259;28;8854;-91
2023/12/01 01:27:45;;;;;;;;;10.80;9.20;;;;;1.27;86.69;98633.38;5055212;28;8854;-92
2023/12/01 01:30:12;;;;;;;;;11.20;9.60;;;;;1.26;86.92;98642.19;5053986;28;8870;-91
2023/12/01 01:32:40;;;;;;;;;10.00;9.40;;;;;1.25;87.00;98640.50;5055436;28;8849;-91
2023/12/01 01:35:08;;;;;;;;;14.20;12.40;;;;;1.26;86.30;98631.69;5053919;28;8869;-91
2023/12/01 01:37:36;;;;;;;;;12.20;9.00;;;;;1.26;86.59;98636.94;5054544;28;9517;-91
2023/12/01 01:40:04;;;;;;;;;9.40;8.20;;;;;1.25;87.27;98632.63;5054061;28;9512;-91
2023/12/01 01:42:33;;;;;;;;;6.80;6.80;;;;;1.23;86.64;98637.13;5054794;28;8922;-91
2023/12/01 01:45:01;;;;;;;;;12.80;11.60;;;;;1.23;86.65;98631.06;5054583;28;8965;-91
2023/12/01 01:47:29;;;;;;;;;9.00;8.20;;;;;1.22;86.36;98626.75;5055275;28;8842;-92
2023/12/01 01:49:56;;;;;;;;;11.80;11.80;;;;;1.21;86.21;98633.75;5059360;28;8915;-92
2023/12/01 01:52:24;;;;;;;;;7.60;7.60;;;;;1.23;86.89;98633.66;5059130;28;8830;-92
2023/12/01 01:54:52;;;;;;;;;5.20;1.00;;;;;1.22;86.93;98626.75;5059090;28;8838;-91
2023/12/01 01:57:20;;;;;;;;;5.60;3.40;;;;;1.23;86.68;98636.28;5059206;28;8838;-91
2023/12/01 01:59:47;;;;;;;;;7.00;7.00;;;;;1.22;87.00;98638.06;5059426;28;8857;-92
2023/12/01 02:02:14;;;;;;;;;7.40;7.40;;;;;1.23;86.95;98641.53;5059182;28;8842;-90
2023/12/01 02:04:42;;;;;;;;;11.40;9.60;;;;;1.24;87.08;98638.81;5058773;28;9501;-91
2023/12/01 02:07:10;;;;;;;;;7.60;6.80;;;;;1.23;86.19;98637.13;5059684;28;8838;-91
2023/12/01 02:09:38;;;;;;;;;9.40;9.00;;;;;1.24;86.60;98638.81;5058763;28;9663;-92
2023/12/01 02:12:05;;;;;;;;;7.80;6.40;;;;;1.23;86.63;98639.75;5058833;28;8885;-92
2023/12/01 02:14:33;;;;;;;;;5.00;3.40;;;;;1.25;86.64;98639.66;5058691;28;8872;-91
2023/12/01 02:17:01;;;;;;;;;6.60;6.40;;;;;1.25;86.45;98642.28;5058889;28;8842;-91
2023/12/01 02:19:29;;;;;;;;;4.40;4.00;;;;;1.28;86.83;98637.69;5058579;28;8822;-92
2023/12/01 02:21:57;;;;;;;;;7.00;6.60;;;;;1.30;86.92;98648.91;5058670;28;8853;-91
2023/12/01 02:24:24;;;;;;;;;10.00;8.40;;;;;1.30;86.36;98640.22;5058754;28;9616;-91
2023/12/01 02:26:52;;;;;;;;;12.40;12.20;;;;;1.30;86.61;98640.22;5058186;28;8849;-91
2023/12/01 02:29:19;;;;;;;;;16.00;13.80;;;;;1.33;86.39;98643.47;5058367;28;8826;-91
2023/12/01 02:31:47;;;;;;;;;8.00;8.00;;;;;1.33;86.93;98643.47;5058462;28;8822;-91
2023/12/01 02:34:15;;;;;;;;;6.60;6.20;;;;;1.35;86.83;98649.47;5058700;28;8949;-91
2023/12/01 02:36:42;;;;;;;;;12.00;10.80;;;;;1.35;86.91;98653.84;5058849;28;8923;-91
2023/12/01 02:39:13;;;;;;;;;10.80;10.20;;;;;1.36;86.43;98660.81;5058731;28;8835;-91
2023/12/01 02:41:41;;;;;;;;;9.80;9.20;;;;;1.36;86.82;98664.25;5059144;28;8912;-91
2023/12/01 02:44:09;;;;;;;;;10.60;9.00;;;;;1.37;86.22;98658.06;5058822;28;8850;-91
2023/12/01 02:46:37;;;;;;;;;10.60;8.40;;;;;1.37;86.60;98660.69;5059525;28;8865;-91
2023/12/01 02:49:04;;;;;;;;;12.80;10.80;;;;;1.39;86.06;98660.59;5058737;28;8846;-91
2023/12/01 02:51:32;;;;;;;;;19.20;16.20;;;;;1.37;86.58;98660.69;5058874;28;8919;-91
2023/12/01 02:54:00;;;;;;;;;13.00;9.00;;;;;1.36;86.31;98661.63;5059248;28;8850;-91
2023/12/01 02:56:27;;;;;;;;;13.20;12.20;;;;;1.36;86.66;98658.19;5059589;28;8834;-91
2023/12/01 02:58:55;;;;;;;;;11.60;10.40;;;;;1.35;86.66;98652.09;5064831;28;8961;-90
2023/12/01 03:01:23;;;;;;;;;12.40;10.00;;;;;1.36;86.36;98661.63;5067101;28;8839;-91
2023/12/01 03:03:52;;;;;;;;;0.80;0.00;;;;;1.35;86.13;98652.09;5059968;28;8827;-92
2023/12/01 03:06:20;;;;;;;;;8.60;7.40;;;;;1.32;86.53;98652.28;5057766;28;8850;-91
2023/12/01 03:08:48;;;;;;;;;8.60;6.00;;;;;1.29;86.36;98657.72;5057178;28;8961;-90
2023/12/01 03:11:16;;;;;;;;;12.80;8.40;;;;;1.29;86.46;98662.13;5057629;28;8838;-90
2023/12/01 03:13:44;;;;;;;;;9.40;8.20;;;;;1.28;86.45;98652.59;5057044;28;8838;-91
2023/12/01 03:16:12;;;;;;;;;3.00;1.40;;;;;1.26;86.35;98657.91;5056401;28;8846;-90
2023/12/01 03:18:40;;;;;;;;;3.00;3.00;;;;;1.25;86.43;98653.63;5057348;28;8977;-90
2023/12/01 03:21:12;;;;;;;;;6.00;6.00;;;;;1.24;86.61;98654.56;5057202;28;8830;-91
2023/12/01 03:23:42;;;;;;;;;7.40;7.40;;;;;1.23;86.58;98657.25;5056976;28;8842;-91
2023/12/01 03:26:10;;;;;;;;;4.40;4.20;;;;;1.19;86.56;98651.38;5057149;28;8856;-91
2023/12/01 03:28:38;;;;;;;;;6.80;4.80;;;;;1.16;86.79;98662.03;5057195;28;8859;-91
2023/12/01 03:31:05;;;;;;;;;8.40;6.80;;;;;1.16;86.04;98666.44;5056262;28;8855;-90
2023/12/01 03:33:34;;;;;;;;;7.80;7.80;;;;;1.14;86.40;98666.53;5056531;28;8965;-91
2023/12/01 03:36:02;;;;;;;;;7.80;7.80;;;;;1.10;86.43;98670.28;5055402;28;8920;-91
2023/12/01 03:38:29;;;;;;;;;7.40;7.00;;;;;1.10;87.03;98669.44;5055836;28;8985;-91
2023/12/01 03:40:57;;;;;;;;;7.80;6.80;;;;;1.10;86.72;98667.69;5057194;28;8865;-90
2023/12/01 03:43:25;;;;;;;;;4.00;3.80;;;;;1.12;86.56;98672.81;5056593;28;8842;-91
2023/12/01 03:45:53;;;;;;;;;8.60;8.60;;;;;1.13;86.99;98661.41;5056493;28;8827;-91
2023/12/01 03:48:21;;;;;;;;;6.40;5.80;;;;;1.13;86.82;98672.72;5056029;28;8846;-91
2023/12/01 03:50:50;;;;;;;;;7.00;6.80;;;;;1.14;87.03;98668.34;5056833;28;8846;-91
2023/12/01 03:53:17;;;;;;;;;6.20;6.20;;;;;1.15;86.36;98667.38;5056627;28;8919;-91
2023/12/01 03:55:45;;;;;;;;;8.60;7.00;;;;;1.14;86.90;98668.34;5057079;28;8865;-90
2023/12/01 03:58:13;;;;;;;;;10.80;7.00;;;;;1.11;86.95;98671.97;5056756;28;8827;-90
2023/12/01 04:00:41;;;;;;;;;8.20;6.60;;;;;1.11;86.30;98673.75;5056896;28;8846;-91
2023/12/01 04:03:09;;;;;;;;;0.00;0.00;;;;;1.12;86.73;98681.50;5056602;28;8822;-91
2023/12/01 04:05:37;;;;;;;;;4.80;4.40;;;;;1.13;86.53;98683.19;5056333;28;8834;-91
2023/12/01 04:08:05;;;;;;;;;12.80;11.20;;;;;1.14;86.53;98687.50;5056284;28;8837;-90
2023/12/01 04:10:33;;;;;;;;;8.60;7.40;;;;;1.14;86.50;98684.88;5056632;28;8847;-90
2023/12/01 04:13:07;;;;;;;;;14.40;12.40;;;;;1.14;86.61;98691.91;5055488;28;9550;-91
2023/12/01 04:15:36;;;;;;;;;8.20;8.20;;;;;1.13;86.26;98698.91;5054757;28;8842;-91
2023/12/01 04:18:06;;;;;;;;;4.40;4.40;;;;;1.12;87.12;98701.63;5056897;28;8862;-91
2023/12/01 04:20:38;;;;;;;;;3.60;3.20;;;;;1.09;86.13;98710.56;5056232;28;8843;-90
2023/12/01 04:23:09;;;;;;;;;0.80;0.40;;;;;1.10;87.00;98700.88;5072980;28;8880;-90
2023/12/01 04:25:37;;;;;;;;;6.00;6.00;;;;;1.10;86.28;98696.50;5076469;28;8934;-90
2023/12/01 04:28:05;;;;;;;;;5.60;5.20;;;;;1.10;86.15;98703.50;5064248;28;8888;-90
2023/12/01 04:30:34;;;;;;;;;6.40;3.80;;;;;1.05;86.53;98701.19;5055355;28;8904;-91
2023/12/01 04:33:03;;;;;;;;;10.40;9.40;;;;;1.04;86.64;98707.34;5055197;28;8981;-90
2023/12/01 04:35:31;;;;;;;;;12.80;9.20;;;;;1.03;86.43;98708.28;5055869;28;9655;-90
2023/12/01 04:37:59;;;;;;;;;3.20;3.20;;;;;0.99;86.95;98701.53;5054965;28;8843;-90
2023/12/01 04:40:28;;;;;;;;;12.00;10.80;;;;;0.98;86.88;98715.59;5055412;28;8862;-90
2023/12/01 04:42:56;;;;;;;;;6.20;6.00;;;;;0.97;87.18;98708.66;5055340;28;8818;-90
2023/12/01 04:45:24;;;;;;;;;6.40;6.00;;;;;0.93;86.53;98707.16;5055228;28;8866;-90
2023/12/01 04:47:54;;;;;;;;;6.40;6.20;;;;;0.89;86.40;98715.28;5055256;28;8854;-91
2023/12/01 04:50:22;;;;;;;;;5.80;5.80;;;;;0.89;86.57;98717.91;5055477;28;8835;-90
2023/12/01 04:52:50;;;;;;;;;8.60;8.60;;;;;0.90;87.00;98711.72;5055115;28;8986;-90
2023/12/01 04:55:18;;;;;;;;;5.60;4.00;;;;;0.90;86.56;98715.22;5054830;28;8972;-90
2023/12/01 04:57:45;;;;;;;;;9.00;8.20;;;;;0.91;86.93;98722.13;5055077;28;8826;-90
2023/12/01 05:00:22;;;;;;;;;1.60;0.60;;;;;0.88;86.14;98719.72;5055954;28;8846;-91
2023/12/01 05:02:51;;;;;;;;;12.40;9.20;;;;;0.85;87.10;98717.25;5055792;28;8858;-91
2023/12/01 05:05:19;;;;;;;;;6.80;6.20;;;;;0.79;86.12;98722.03;5055942;28;8842;-91
2023/12/01 05:07:49;;;;;;;;;8.20;6.80;;;;;0.75;86.99;98723.13;5055812;28;8834;-90
2023/12/01 05:10:17;;;;;;;;;2.40;1.00;;;;;0.69;87.11;98724.34;5055789;28;8866;-90
2023/12/01 05:12:45;;;;;;;;;3.00;2.60;;;;;0.70;87.32;98727.81;5055308;28;8818;-91
2023/12/01 05:15:22;;;;;;;;;9.20;5.80;;;;;0.72;86.50;98731.19;5055791;28;8831;-91
2023/12/01 05:17:50;;;;;;;;;4.40;4.00;;;;;0.70;86.27;98736.50;5054423;28;8851;-90
2023/12/01 05:20:18;;;;;;;;;6.00;6.00;;;;;0.66;87.42;98735.03;5054416;28;8822;-91
2023/12/01 05:22:45;;;;;;;;;4.00;3.60;;;;;0.66;87.51;98731.53;5054470;28;8839;-91
2023/12/01 05:25:14;;;;;;;;;3.60;3.60;;;;;0.64;86.64;98742.13;5058741;28;8854;-91
2023/12/01 05:27:42;;;;;;;;;5.20;4.00;;;;;0.61;87.36;98737.06;5057575;28;8897;-91
2023/12/01 05:30:12;;;;;;;;;2.20;1.80;;;;;0.62;87.07;98746.59;5057303;28;8842;-90
2023/12/01 05:32:39;;;;;;;;;6.00;4.00;;;;;0.64;87.42;98747.38;5057142;28;8853;-90
2023/12/01 05:35:10;;;;;;;;;10.00;6.60;;;;;0.62;87.40;98749.22;5058006;28;9523;-90
2023/12/01 05:37:38;;;;;;;;;3.60;3.00;;;;;0.57;86.66;98750.44;5057596;28;8904;-90
2023/12/01 05:40:06;;;;;;;;;6.80;6.80;;;;;0.55;86.68;98754.91;5057408;28;8972;-91
2023/12/01 05:42:34;;;;;;;;;6.80;5.60;;;;;0.54;87.07;98755.84;5058526;28;8847;-90
2023/12/01 05:45:02;;;;;;;;;5.20;5.20;;;;;0.54;86.93;98756.69;5057674;28;8843;-91
2023/12/01 05:47:29;;;;;;;;;5.00;5.00;;;;;0.54;87.07;98756.69;5058738;28;8898;-91
2023/12/01 05:49:57;;;;;;;;;6.20;4.00;;;;;0.55;87.40;98768.84;5058572;28;8822;-90
2023/12/01 05:52:25;;;;;;;;;3.80;3.40;;;;;0.55;86.73;98773.25;5056887;28;8869;-90
2023/12/01 05:54:54;;;;;;;;;6.80;6.00;;;;;0.56;86.82;98769.69;5058169;28;8838;-90
2023/12/01 05:57:22;;;;;;;;;6.00;6.00;;;;;0.55;87.11;98768.00;5057709;28;8842;-90
2023/12/01 05:59:50;;;;;;;;;3.60;3.20;;;;;0.56;86.85;98767.94;5057452;28;8858;-90
2023/12/01 06:02:17;;;;;;;;;4.00;3.75;;;;;0.60;87.02;98764.19;5058357;28;8842;-90
2023/12/01 06:04:45;;;;;;;;;8.20;6.20;;;;;0.60;86.72;98777.28;5058605;28;8834;-91
2023/12/01 06:07:14;;;;;;;;;6.20;6.20;;;;;0.61;86.54;98772.91;5058372;28;8992;-91
2023/12/01 06:09:42;;;;;;;;;10.40;10.40;;;;;0.61;87.22;98773.72;5050527;28;8935;-91
2023/12/01 06:12:10;;;;;;;;;6.80;6.20;;;;;0.58;86.69;98776.53;5036591;28;8865;-90
2023/12/01 06:14:37;;;;;;;;;11.20;9.00;;;;;0.59;87.30;98780.84;5046685;28;9465;-90
2023/12/01 06:17:07;;;;;;;;;4.80;4.00;;;;;0.61;86.97;98789.44;5055767;28;8830;-91
2023/12/01 06:19:34;;;;;;;;;8.60;8.60;;;;;0.61;87.18;98786.00;5056936;28;8858;-91
2023/12/01 06:22:02;;;;;;;;;4.80;4.80;;;;;0.63;87.23;98799.81;5057105;28;8838;-91
2023/12/01 06:24:30;;;;;;;;;3.60;3.60;;;;;0.65;86.94;98792.72;5056893;28;8969;-91
2023/12/01 06:26:59;;;;;;;;;6.20;4.40;;;;;0.65;87.02;98801.44;5055460;28;8873;-91
2023/12/01 06:29:28;;;;;;;;;4.40;3.20;;;;;0.68;86.49;98795.19;5054364;28;8843;-91
2023/12/01 06:31:56;;;;;;;;;7.00;4.00;;;;;0.69;86.90;98802.91;5053647;28;8849;-91
2023/12/01 06:34:23;;;;;;;;;5.80;5.40;;;;;0.71;87.34;98811.53;5054284;28;8843;-91
2023/12/01 06:36:51;;;;;;;;;6.40;5.40;;;;;0.70;87.21;98809.00;5055270;28;9258;-91
2023/12/01 06:39:19;;;;;;;;;4.00;3.40;;;;;0.72;87.14;98812.38;5055012;28;8976;-91
2023/12/01 06:41:46;;;;;;;;;6.60;4.00;;;;;0.72;86.55;98817.63;5055491;28;8854;-91
2023/12/01 06:44:14;;;;;;;;;4.00;4.00;;;;;0.74;86.66;98815.75;5054474;28;8862;-91
2023/12/01 06:46:42;;;;;;;;;5.60;5.60;;;;;0.71;86.71;98822.00;5056283;28;8857;-90
2023/12/01 06:49:09;;;;;;;;;6.40;6.40;;;;;0.72;86.19;98817.63;5054430;28;8846;-91
2023/12/01 06:51:37;;;;;;;;;5.80;4.80;;;;;0.72;87.25;98826.34;5054034;28;8849;-91
2023/12/01 06:54:05;;;;;;;;;6.80;4.80;;;;;0.71;86.57;98824.63;5054396;28;8861;-91
2023/12/01 06:56:33;;;;;;;;;3.60;3.60;;;;;0.71;86.44;98831.66;5054270;28;8842;-91
2023/12/01 06:59:01;;;;;;;;;5.60;5.60;;;;;0.71;86.50;98829.84;5054888;28;8850;-91
2023/12/01 07:01:30;;;;;;;;;3.40;3.40;;;;;0.70;86.78;98830.78;5055135;28;8964;-92
2023/12/01 07:03:57;;;;;;;;;4.80;4.40;;;;;0.71;86.92;98832.47;5055050;28;8858;-91
2023/12/01 07:06:25;;;;;;;;;9.60;6.20;;;;;0.72;86.82;98834.19;5054934;28;8853;-91
2023/12/01 07:08:53;;;;;;;;;5.20;4.40;;;;;0.74;86.81;98837.56;5055705;28;8966;-91
2023/12/01 07:11:21;;;;;;;;;4.40;3.80;;;;;0.74;86.65;98850.66;5055273;28;8854;-91
2023/12/01 07:13:49;;;;;;;;;7.00;6.40;;;;;0.76;86.43;98848.78;5055278;28;8927;-91
2023/12/01 07:16:19;;;;;;;;;8.00;6.60;;;;;0.77;86.92;98847.84;5054887;28;8862;-91
2023/12/01 07:18:47;;;;;;;;;6.60;6.60;;;;;0.76;86.64;98848.78;5054975;28;8880;-91
2023/12/01 07:21:15;;;;;;;;;3.20;3.00;;;;;0.80;86.33;98847.69;5055235;28;8838;-91
2023/12/01 07:23:44;;;;;;;;;6.80;6.00;;;;;0.81;86.24;98854.59;5055548;28;8854;-91
2023/12/01 07:26:12;;;;;;;;;6.40;5.40;;;;;0.83;86.99;98862.38;5055450;28;8861;-91
2023/12/01 07:28:39;;;;;;;;;9.40;9.20;;;;;0.82;86.56;98861.53;5055184;28;8854;-91
2023/12/01 07:31:07;;;;;;;;;8.20;6.00;;;;;0.84;86.79;98864.91;5053701;28;8854;-91
2023/12/01 07:33:36;;;;;;;;;6.60;6.60;;;;;0.85;86.63;98861.34;5053235;28;9583;-91
2023/12/01 07:36:04;;;;;;;;;6.00;6.00;;;;;0.87;86.83;98869.97;5053932;28;8842;-91
2023/12/01 07:38:38;;;;;;;;;7.00;7.00;;;;;0.90;86.78;98869.78;5054558;28;8845;-91
2023/12/01 07:41:07;;;;;;;;;10.80;6.00;;;;;0.91;86.22;98865.41;5054455;28;8858;-91
2023/12/01 07:43:35;;;;;;;;;5.60;5.60;;;;;0.90;86.50;98859.31;5053892;28;8842;-91
2023/12/01 07:46:03;;;;;;;;;6.80;6.80;;;;;0.91;86.13;98863.59;5054835;28;8857;-90
2023/12/01 07:48:32;;;;;;;;;7.80;6.80;;;;;0.89;86.16;98857.63;5054176;28;8826;-91
2023/12/01 07:51:00;;;;;;;;;6.80;6.80;;;;;0.90;86.23;98863.69;5054186;28;8888;-91
2023/12/01 07:53:28;;;;;;;;;4.40;4.00;;;;;0.91;86.56;98854.94;5054310;28;8834;-91
2023/12/01 07:55:56;;;;;;;;;5.20;5.20;;;;;0.93;86.36;98869.59;5054150;28;8861;-91
2023/12/01 07:58:24;;;;;;;;;10.00;9.40;;;;;0.96;86.52;98868.56;5054599;28;8956;-91
2023/12/01 08:00:52;;;;;;;;;3.80;3.80;;;;;0.96;86.89;98858.97;5054939;28;8936;-91
2023/12/01 08:03:20;;;;;;;;;8.00;6.20;;;;;0.97;86.16;98863.25;5054614;28;8952;-91
2023/12/01 08:05:48;;;;;;;;;1.40;1.40;;;;;0.97;85.93;98865.03;5055659;28;8838;-91
2023/12/01 08:08:16;;;;;;;;;9.00;7.00;;;;;0.97;85.88;98860.63;5055334;28;8842;-91
2023/12/01 08:10:44;;;;;;;;;8.20;8.20;;;;;0.99;86.31;98869.25;5056440;28;8858;-91
2023/12/01 08:13:15;;;;;;;;;7.80;7.80;;;;;0.97;85.96;98876.34;5073720;28;8850;-91
2023/12/01 08:15:43;;;;;;;;;10.20;8.80;;;;;0.96;85.74;98877.28;5074038;28;8921;-91
2023/12/01 08:18:11;;;;;;;;;3.80;3.40;;;;;0.96;86.14;98879.91;5056071;28;8872;-91
2023/12/01 08:20:41;;;;;;;;;8.40;6.40;;;;;0.95;86.59;98886.09;5054292;28;8931;-91
2023/12/01 08:23:09;;;;;;;;;4.40;4.00;;;;;0.96;86.14;98881.69;5054109;28;8866;-90
2023/12/01 08:25:37;;;;;;;;;6.60;5.20;;;;;0.95;85.79;98882.63;5053563;28;8835;-90
2023/12/01 08:28:05;;;;;;;;;6.20;5.20;;;;;0.96;86.42;98885.16;5053424;28;8843;-90
2023/12/01 08:30:32;;;;;;;;;4.40;4.40;;;;;0.97;85.85;98885.97;5052932;28;8838;-91
2023/12/01 08:33:00;;;;;;;;;5.60;3.40;;;;;0.98;85.98;98888.53;5052746;28;8899;-90
2023/12/01 08:35:28;;;;;;;;;4.00;4.00;;;;;0.96;86.40;98890.41;5053332;28;8838;-91
2023/12/01 08:37:56;;;;;;;;;7.00;6.20;;;;;0.97;85.98;98896.47;5052913;28;8846;-91
2023/12/01 08:40:24;;;;;;;;;6.40;6.00;;;;;0.97;85.75;98897.31;5051957;28;8869;-91
2023/12/01 08:42:54;;;;;;;;;2.20;2.20;;;;;0.96;86.19;98913.97;5052678;28;9654;-91
2023/12/01 08:45:23;;;;;;;;;9.40;8.00;;;;;0.96;85.96;98906.13;5052835;28;8872;-91
2023/12/01 08:47:52;;;;;;;;;3.40;3.40;;;;;0.95;85.90;98909.69;5052397;28;8862;-91
2023/12/01 08:50:21;;;;;;;;;8.60;7.00;;;;;0.95;85.84;98903.56;5052930;28;8838;-91
2023/12/01 08:52:48;;;;;;;;;5.80;5.60;;;;;0.96;85.64;98906.13;5051977;28;9002;-91
2023/12/01 08:55:16;;;;;;;;;11.20;10.40;;;;;0.97;86.16;98906.94;5052578;28;8989;-91
2023/12/01 08:57:44;;;;;;;;;12.40;12.40;;;;;0.98;85.90;98908.66;5053190;28;8854;-91
2023/12/01 09:00:14;;;;;;;;;7.40;5.20;;;;;0.98;85.63;98917.34;5058713;28;8838;-90
2023/12/01 09:02:42;;;;;;;;;9.20;9.00;;;;;0.99;85.68;98921.66;5057904;28;8842;-90
2023/12/01 09:05:10;;;;;;;;;11.00;7.40;;;;;0.99;85.83;98926.88;5057349;28;8838;-91
2023/12/01 09:07:38;;;;;;;;;4.40;4.20;;;;;0.99;86.18;98926.88;5057716;28;8860;-91
2023/12/01 09:10:06;;;;;;;;;9.80;9.40;;;;;0.99;85.31;98934.75;5057073;28;8919;-91
2023/12/01 09:12:34;;;;;;;;;7.00;5.40;;;;;0.99;86.07;98932.13;5057707;28;8837;-91
2023/12/01 09:15:02;;;;;;;;;15.80;9.80;;;;;0.99;85.94;98929.50;5057065;28;8862;-91
2023/12/01 09:17:30;;;;;;;;;4.00;3.40;;;;;0.96;85.43;98932.31;5056101;28;8854;-91
2023/12/01 09:19:57;;;;;;;;;7.80;7.00;;;;;0.97;85.59;98938.38;5055695;28;8846;-90
2023/12/01 09:22:26;;;;;;;;;7.20;6.80;;;;;0.96;86.02;98920.97;5056029;28;8873;-91
2023/12/01 09:24:54;;;;;;;;;6.80;6.20;;;;;0.97;86.19;98931.38;5055254;28;8884;-91
2023/12/01 09:27:22;;;;;;;;;7.80;7.80;;;;;1.00;85.98;98930.38;5056308;28;8958;-90
2023/12/01 09:29:51;;;;;;;;;10.80;8.80;;;;;1.01;86.11;98926.81;5055774;28;8850;-91
2023/12/01 09:32:19;;;;;;;;;9.80;9.20;;;;;1.02;85.63;98926.72;5055160;28;8885;-91
2023/12/01 09:34:47;;;;;;;;;6.00;4.00;;;;;1.03;85.61;98927.56;5055612;28;8865;-91
2023/12/01 09:37:15;;;;;;;;;3.80;3.80;;;;;1.04;85.46;98935.34;5056477;28;9008;-91
2023/12/01 09:39:42;;;;;;;;;4.80;4.40;;;;;1.06;85.41;98940.50;5054272;28;8865;-91
2023/12/01 09:42:12;;;;;;;;;7.40;6.60;;;;;1.06;85.38;98937.88;5056254;28;8852;-92
2023/12/01 09:44:40;;;;;;;;;7.80;6.20;;;;;1.09;85.36;98940.31;5058811;28;8905;-92
2023/12/01 09:47:08;;;;;;;;;5.40;5.40;;;;;1.09;85.72;98949.03;5056406;28;9068;-92
2023/12/01 09:49:36;;;;;;;;;4.60;4.40;;;;;1.07;85.53;98945.63;5057179;28;8854;-92
2023/12/01 09:52:04;;;;;;;;;9.20;7.00;;;;;1.05;85.84;98955.38;5056674;28;8915;-91
2023/12/01 09:54:32;;;;;;;;;6.80;6.40;;;;;1.01;85.47;98951.22;5057053;28;8869;-91
2023/12/01 09:56:59;;;;;;;;;10.80;7.80;;;;;1.05;85.41;98955.38;5056343;28;8862;-91
2023/12/01 09:59:28;;;;;;;;;7.00;5.40;;;;;1.07;85.71;98955.28;5056034;28;8842;-90
2023/12/01 10:01:56;;;;;;;;;7.40;6.20;;;;;1.08;85.50;98956.97;5056233;28;9610;-91
2023/12/01 10:04:23;;;;;;;;;6.40;6.40;;;;;1.06;85.53;98957.06;5054182;28;8838;-91
2023/12/01 10:06:54;;;;;;;;;10.20;9.60;;;;;1.07;85.53;98945.63;5055646;28;8932;-91
2023/12/01 10:09:22;;;;;;;;;7.00;6.80;;;;;1.08;85.55;98951.75;5056094;28;8835;-91
2023/12/01 10:11:50;;;;;;;;;8.60;8.60;;;;;1.07;85.43;98957.91;5056183;28;8842;-91
2023/12/01 10:14:18;;;;;;;;;10.40;9.20;;;;;1.07;85.74;98950.88;5056148;28;8839;-91
2023/12/01 10:16:45;;;;;;;;;8.20;7.00;;;;;1.08;85.44;98949.94;5056768;28;8862;-92
2023/12/01 10:19:13;;;;;;;;;9.20;7.40;;;;;1.10;85.43;98947.25;5056309;28;8870;-91
2023/12/01 10:21:44;;;;;;;;;9.60;7.00;;;;;1.08;85.32;98947.31;5057352;28;8822;-91
2023/12/01 10:24:13;;;;;;;;;7.40;6.00;;;;;1.10;85.38;98950.72;5056337;28;8939;-91
2023/12/01 10:26:41;;;;;;;;;6.40;4.40;;;;;1.11;85.35;98947.16;5056158;28;8850;-92
2023/12/01 10:29:09;;;;;;;;;10.80;10.00;;;;;1.13;85.04;98940.06;5056664;28;8996;-91
2023/12/01 10:31:37;;;;;;;;;8.60;6.80;;;;;1.14;85.29;98946.97;5056309;28;8838;-91
2023/12/01 10:34:06;;;;;;;;;7.20;7.00;;;;;1.16;85.08;98932.00;5056528;28;8846;-91
2023/12/01 10:36:34;;;;;;;;;11.20;9.60;;;;;1.18;85.59;98927.53;5056018;28;8842;-92
2023/12/01 10:39:03;;;;;;;;;10.00;7.40;;;;;1.20;85.58;98936.16;5055868;28;8847;-92
2023/12/01 10:41:31;;;;;;;;;11.20;9.20;;;;;1.20;85.11;98932.66;5060258;28;8854;-91
2023/12/01 10:43:58;;;;;;;;;6.60;6.60;;;;;1.22;84.89;98925.56;5068309;28;8834;-92
2023/12/01 10:46:26;;;;;;;;;9.80;8.20;;;;;1.23;84.54;98925.47;5062644;28;8881;-91
2023/12/01 10:48:55;;;;;;;;;9.20;7.40;;;;;1.22;85.08;98926.41;5055037;28;8861;-91
2023/12/01 10:51:23;;;;;;;;;7.40;7.00;;;;;1.25;84.86;98922.75;5054921;28;8836;-91
2023/12/01 10:53:51;;;;;;;;;10.00;9.00;;;;;1.25;85.12;98928.88;5055244;28;8857;-91
2023/12/01 10:56:19;;;;;;;;;9.60;9.20;;;;;1.25;84.58;98922.75;5054525;28;9573;-91
2023/12/01 10:58:48;;;;;;;;;6.80;6.20;;;;;1.26;85.25;98922.69;5054586;28;8996;-91
2023/12/01 11:01:17;;;;;;;;;8.80;7.40;;;;;1.26;84.35;98924.44;5054889;28;8939;-91
2023/12/01 11:03:45;;;;;;;;;2.80;2.60;;;;;1.28;84.91;98926.06;5054376;28;8846;-91
2023/12/01 11:06:12;;;;;;;;;3.00;1.80;;;;;1.28;84.33;98919.97;5054412;28;8850;-91
2023/12/01 11:08:40;;;;;;;;;13.00;10.00;;;;;1.30;85.16;98923.34;5053723;28;8981;-91
2023/12/01 11:11:08;;;;;;;;;9.20;7.80;;;;;1.32;84.68;98916.22;5053813;28;8834;-91
2023/12/01 11:13:37;;;;;;;;;6.80;6.80;;;;;1.33;85.13;98916.16;5054217;28;8985;-91
2023/12/01 11:16:05;;;;;;;;;15.60;9.40;;;;;1.33;85.00;98908.28;5054517;28;8834;-91
2023/12/01 11:18:33;;;;;;;;;2.80;1.80;;;;;1.32;84.93;98911.84;5054133;28;9227;-91
2023/12/01 11:21:05;;;;;;;;;7.40;7.00;;;;;1.32;84.92;98911.84;5053446;28;8921;-91
2023/12/01 11:23:34;;;;;;;;;8.60;7.00;;;;;1.32;85.00;98908.38;5054138;28;9617;-91
2023/12/01 11:26:05;;;;;;;;;5.60;5.60;;;;;1.26;84.39;98914.81;5054356;28;8988;-91
2023/12/01 11:28:42;;;;;;;;;7.40;6.20;;;;;1.22;84.76;98913.28;5052741;28;8858;-91
2023/12/01 11:31:13;;;;;;;;;9.20;9.20;;;;;1.18;85.13;98911.81;5054344;28;8915;-91
2023/12/01 11:33:41;;;;;;;;;14.00;11.00;;;;;1.17;85.01;98918.00;5053740;28;8870;-90
2023/12/01 11:36:09;;;;;;;;;4.80;4.80;;;;;1.16;84.79;98911.03;5054628;28;8858;-92
2023/12/01 11:38:37;;;;;;;;;7.80;7.80;;;;;1.12;84.74;98914.78;5054269;28;8857;-91
2023/12/01 11:41:06;;;;;;;;;12.60;9.60;;;;;1.09;85.27;98909.72;5054417;28;8846;-91
2023/12/01 11:43:33;;;;;;;;;10.00;9.80;;;;;1.08;84.66;98908.00;5054849;28;8981;-92
2023/12/01 11:46:05;;;;;;;;;10.60;8.60;;;;;1.11;84.83;98904.38;5054645;28;8858;-92
2023/12/01 11:48:34;;;;;;;;;10.00;8.20;;;;;1.11;85.14;98910.47;5052691;28;8863;-91
2023/12/01 11:51:02;;;;;;;;;8.40;7.20;;;;;1.09;85.03;98907.09;5053446;28;8850;-91